Time;durP1;ratioP1;P1;durP2;ratioP2;P2;SDS_P1;SDS_P2;PMS_P1;PMS_P2;Temp;Humidity;BMP_temperature;BMP_pressure;BME280_temperature;BME280_humidity;BME280_pressure;Samples;Min_cycle;Max_cycle;Signal;HPM_P1;HPM_P2
2022/12/01 00:01:11;;;;;;;3.30;1.90;;;6.90;83.90;;;;;;5055597;28;20076;-65
2022/12/01 00:03:37;;;;;;;5.03;2.70;;;6.90;83.50;;;;;;5055339;28;20112;-67
2022/12/01 00:06:15;;;;;;;3.73;2.10;;;6.90;83.90;;;;;;5055193;28;20029;-67
2022/12/01 00:10:24;;;;;;;3.43;1.90;;;6.90;84.30;;;;;;5055264;28;20048;-68
2022/12/01 00:11:27;;;;;;;1.77;1.20;;;6.90;82.90;;;;;;5055072;28;20171;-66
2022/12/01 00:13:52;;;;;;;3.13;1.20;;;7.00;82.30;;;;;;5055225;28;20036;-65
2022/12/01 00:16:18;;;;;;;1.13;0.70;;;7.00;81.40;;;;;;5055084;28;20454;-68
2022/12/01 00:18:47;;;;;;;1.57;0.90;;;7.00;81.10;;;;;;5054943;28;20486;-66
2022/12/01 00:21:18;;;;;;;1.73;0.80;;;7.00;80.90;;;;;;5053347;28;20086;-66
2022/12/01 00:23:49;;;;;;;0.50;0.40;;;7.10;81.00;;;;;;5052156;28;20036;-65
2022/12/01 00:26:16;;;;;;;3.20;1.23;;;7.10;80.20;;;;;;5053038;28;20025;-66
2022/12/01 00:28:42;;;;;;;5.37;4.13;;;7.20;79.80;;;;;;5054907;28;20021;-68
2022/12/01 00:31:11;;;;;;;1.33;0.83;;;7.20;79.10;;;;;;5054583;28;20071;-67
2022/12/01 00:33:38;;;;;;;0.50;0.50;;;7.20;78.70;;;;;;5054888;28;20032;-67
2022/12/01 00:36:04;;;;;;;0.80;0.60;;;7.30;78.70;;;;;;5054589;28;20053;-66
2022/12/01 00:38:31;;;;;;;0.60;0.30;;;7.20;79.10;;;;;;5054725;28;20032;-65
2022/12/01 00:40:56;;;;;;;0.33;0.20;;;7.20;79.30;;;;;;5054499;28;20058;-64
2022/12/01 00:43:23;;;;;;;0.37;0.37;;;7.20;79.30;;;;;;5054633;28;20104;-66
2022/12/01 00:45:49;;;;;;;0.30;0.30;;;7.20;79.50;;;;;;5054571;28;20395;-66
2022/12/01 00:48:15;;;;;;;0.20;0.20;;;7.20;79.50;;;;;;5054598;28;20024;-67
2022/12/01 00:50:41;;;;;;;0.70;0.30;;;7.10;79.50;;;;;;5054564;28;20033;-65
2022/12/01 00:53:06;;;;;;;0.13;0.13;;;7.20;79.60;;;;;;5054505;28;20494;-66
2022/12/01 00:55:32;;;;;;;0.67;0.40;;;7.20;79.70;;;;;;5054514;28;20080;-65
2022/12/01 00:57:58;;;;;;;0.33;0.20;;;7.10;79.60;;;;;;5054191;28;20539;-67
2022/12/01 01:00:24;;;;;;;0.90;0.20;;;7.10;79.20;;;;;;5054468;28;20029;-67
2022/12/01 01:02:49;;;;;;;0.83;0.53;;;7.10;79.60;;;;;;5054156;28;20056;-65
2022/12/01 01:05:15;;;;;;;0.93;0.47;;;7.10;79.50;;;;;;5053889;28;20032;-65
2022/12/01 01:07:40;;;;;;;0.43;0.40;;;7.10;79.50;;;;;;5053985;28;20037;-66
2022/12/01 01:10:06;;;;;;;0.43;0.20;;;7.10;79.40;;;;;;5053454;28;20051;-68
2022/12/01 01:12:32;;;;;;;0.50;0.40;;;7.10;79.40;;;;;;5054202;28;20087;-65
2022/12/01 01:14:58;;;;;;;0.50;0.40;;;7.10;79.70;;;;;;5054015;28;20533;-65
2022/12/01 01:17:23;;;;;;;0.50;0.30;;;7.10;79.60;;;;;;5053628;28;20040;-66
2022/12/01 01:19:52;;;;;;;0.80;0.50;;;7.10;79.40;;;;;;5053940;28;20029;-67
2022/12/01 01:22:17;;;;;;;1.13;0.50;;;7.00;80.00;;;;;;5053948;28;20036;-65
2022/12/01 01:24:43;;;;;;;0.73;0.40;;;7.00;80.30;;;;;;5053905;28;20029;-66
2022/12/01 01:27:09;;;;;;;0.93;0.50;;;7.00;80.90;;;;;;5053578;28;20029;-65
2022/12/01 01:29:35;;;;;;;0.83;0.37;;;6.90;81.00;;;;;;5053468;28;20081;-67
2022/12/01 01:32:01;;;;;;;0.60;0.50;;;6.90;80.90;;;;;;5053433;28;20035;-66
2022/12/01 01:34:26;;;;;;;1.03;0.60;;;6.90;81.20;;;;;;5053608;28;20017;-66
2022/12/01 01:36:52;;;;;;;1.27;0.60;;;6.90;81.00;;;;;;5053569;28;20040;-65
2022/12/01 01:39:17;;;;;;;0.90;0.60;;;6.80;80.60;;;;;;5053581;28;20057;-65
2022/12/01 01:41:43;;;;;;;0.90;0.50;;;6.80;81.00;;;;;;5053570;28;20139;-66
2022/12/01 01:44:43;;;;;;;1.20;0.50;;;6.80;81.10;;;;;;5053530;28;20037;-66
2022/12/01 01:47:09;;;;;;;1.73;0.70;;;6.80;81.40;;;;;;5053552;28;20108;-66
2022/12/01 01:49:35;;;;;;;0.83;0.43;;;6.80;81.00;;;;;;5053126;28;20028;-65
2022/12/01 01:52:03;;;;;;;0.90;0.50;;;6.80;82.10;;;;;;5053244;28;20051;-70
2022/12/01 01:54:40;;;;;;;2.47;1.40;;;6.80;82.20;;;;;;5053158;28;20029;-66
2022/12/01 01:57:08;;;;;;;3.43;2.27;;;6.80;82.30;;;;;;5053137;28;20059;-66
2022/12/01 01:59:42;;;;;;;4.20;2.57;;;6.80;82.10;;;;;;5050165;28;20416;-65
2022/12/01 02:02:10;;;;;;;4.03;2.40;;;6.70;81.90;;;;;;5050186;28;20036;-64
2022/12/01 02:04:44;;;;;;;7.77;4.27;;;6.80;82.30;;;;;;5051379;28;20155;-64
2022/12/01 02:07:11;;;;;;;6.10;3.43;;;6.70;82.50;;;;;;5052712;28;20083;-66
2022/12/01 02:09:37;;;;;;;3.83;2.47;;;6.80;82.60;;;;;;5053017;28;20124;-67
2022/12/01 02:12:24;;;;;;;3.17;1.90;;;6.80;83.00;;;;;;5052806;28;20061;-65
2022/12/01 02:14:50;;;;;;;2.80;1.13;;;6.80;83.20;;;;;;5052809;28;20479;-65
2022/12/01 02:17:29;;;;;;;1.37;0.90;;;6.70;83.00;;;;;;5053135;28;20044;-65
2022/12/01 02:20:06;;;;;;;0.80;0.47;;;6.80;82.50;;;;;;5052799;28;20028;-65
2022/12/01 02:23:06;;;;;;;1.00;0.50;;;6.80;82.30;;;;;;5052806;28;20029;-63
2022/12/01 02:25:46;;;;;;;0.20;0.20;;;6.80;82.00;;;;;;5051494;28;20041;-65
2022/12/01 02:28:45;;;;;;;0.80;0.27;;;6.80;81.70;;;;;;5052645;28;20394;-66
2022/12/01 02:31:20;;;;;;;0.20;0.20;;;6.80;81.70;;;;;;5052864;28;20037;-64
2022/12/01 02:33:57;;;;;;;2.40;0.30;;;6.90;82.00;;;;;;5052711;28;20029;-68
2022/12/01 02:36:35;;;;;;;1.07;0.20;;;6.90;81.60;;;;;;5052150;28;20080;-69
2022/12/01 02:39:19;;;;;;;0.30;0.27;;;6.80;81.60;;;;;;5052897;28;20032;-67
2022/12/01 02:41:57;;;;;;;0.40;0.30;;;6.90;81.50;;;;;;5052839;28;20029;-65
2022/12/01 02:44:43;;;;;;;0.20;0.20;;;6.90;81.30;;;;;;5052450;28;20032;-66
2022/12/01 02:47:13;;;;;;;0.30;0.20;;;6.80;81.10;;;;;;5052626;28;20025;-67
2022/12/01 02:49:50;;;;;;;0.47;0.27;;;6.90;80.70;;;;;;5052655;28;20044;-68
2022/12/01 02:52:17;;;;;;;0.50;0.40;;;6.90;80.50;;;;;;5052436;28;20021;-65
2022/12/01 02:54:45;;;;;;;0.50;0.20;;;6.90;80.60;;;;;;5052724;28;20391;-67
2022/12/01 02:57:13;;;;;;;0.20;0.20;;;6.90;81.00;;;;;;5052632;28;20490;-68
2022/12/01 02:59:45;;;;;;;0.50;0.40;;;6.90;81.10;;;;;;5052517;28;20416;-68
2022/12/01 03:02:30;;;;;;;2.40;0.40;;;6.90;81.10;;;;;;5052784;28;20028;-69
2022/12/01 03:05:32;;;;;;;1.03;0.30;;;6.90;81.00;;;;;;5052758;28;20036;-65
2022/12/01 03:08:19;;;;;;;0.40;0.32;;;7.00;80.70;;;;;;5052670;28;20021;-67
2022/12/01 03:10:55;;;;;;;0.43;0.30;;;7.00;80.60;;;;;;5052690;28;20463;-65
2022/12/01 03:13:52;;;;;;;0.30;0.30;;;7.00;80.70;;;;;;5052443;28;20474;-64
2022/12/01 03:16:32;;;;;;;0.83;0.40;;;7.00;80.80;;;;;;5052141;28;20036;-68
2022/12/01 03:19:15;;;;;;;0.53;0.30;;;7.00;80.90;;;;;;5052515;28;20025;-67
2022/12/01 03:21:47;;;;;;;0.55;0.30;;;7.00;80.90;;;;;;5052636;28;20100;-66
2022/12/01 03:24:22;;;;;;;0.53;0.30;;;7.00;81.00;;;;;;5052484;28;20391;-69
2022/12/01 03:26:55;;;;;;;0.40;0.30;;;7.00;81.30;;;;;;5052640;28;20025;-66
2022/12/01 03:29:26;;;;;;;0.40;0.23;;;6.90;81.30;;;;;;5052198;28;20483;-67
2022/12/01 03:32:01;;;;;;;0.23;0.23;;;6.90;81.80;;;;;;5052509;28;20029;-65
2022/12/01 03:34:45;;;;;;;1.13;0.50;;;6.90;82.10;;;;;;5055239;28;20021;-65
2022/12/01 03:37:35;;;;;;;0.37;0.30;;;6.90;82.10;;;;;;5055897;28;20057;-65
2022/12/01 03:40:06;;;;;;;1.40;0.30;;;6.90;81.80;;;;;;5055460;28;20041;-65
2022/12/01 03:42:40;;;;;;;0.90;0.43;;;6.90;81.80;;;;;;5056030;28;20021;-67
2022/12/01 03:45:38;;;;;;;0.63;0.40;;;6.90;81.90;;;;;;5055762;28;20036;-66
2022/12/01 03:48:05;;;;;;;0.60;0.40;;;6.80;82.30;;;;;;5055619;28;20119;-65
2022/12/01 03:50:43;;;;;;;0.50;0.50;;;6.90;82.20;;;;;;5056017;28;20025;-65
2022/12/01 03:53:18;;;;;;;0.60;0.50;;;6.80;83.00;;;;;;5055822;28;20025;-67
2022/12/01 03:55:49;;;;;;;0.97;0.53;;;6.80;83.10;;;;;;5055270;28;20159;-66
2022/12/01 03:58:27;;;;;;;0.97;0.50;;;6.80;82.60;;;;;;5055462;28;20028;-64
2022/12/01 04:00:56;;;;;;;0.83;0.50;;;6.80;82.10;;;;;;5055694;28;20348;-67
2022/12/01 04:03:24;;;;;;;0.70;0.50;;;6.70;82.50;;;;;;5055361;28;20033;-65
2022/12/01 04:05:50;;;;;;;0.70;0.50;;;6.60;82.80;;;;;;5055344;28;20025;-65
2022/12/01 04:08:16;;;;;;;1.90;0.60;;;6.60;83.70;;;;;;5055248;28;20028;-65
2022/12/01 04:10:42;;;;;;;0.87;0.60;;;6.60;83.80;;;;;;5055682;28;20095;-67
2022/12/01 04:13:15;;;;;;;0.77;0.50;;;6.60;83.40;;;;;;5055543;28;20467;-65
2022/12/01 04:15:41;;;;;;;0.87;0.63;;;6.60;83.60;;;;;;5055128;28;20486;-65
2022/12/01 04:18:06;;;;;;;1.23;0.77;;;6.60;83.10;;;;;;5055161;28;20048;-64
2022/12/01 04:20:32;;;;;;;1.30;0.63;;;6.60;83.40;;;;;;5054873;28;20324;-64
2022/12/01 04:22:58;;;;;;;0.60;0.50;;;6.50;82.40;;;;;;5055023;28;20478;-65
2022/12/01 04:25:23;;;;;;;1.07;0.60;;;6.50;82.50;;;;;;5054925;28;20378;-65
2022/12/01 04:27:49;;;;;;;2.30;1.13;;;6.50;82.90;;;;;;5054931;28;20036;-65
2022/12/01 04:30:15;;;;;;;1.40;0.67;;;6.50;83.20;;;;;;5054754;28;20020;-65
2022/12/01 04:32:42;;;;;;;1.70;0.70;;;6.40;83.00;;;;;;5055350;28;20403;-66
2022/12/01 04:35:10;;;;;;;1.07;0.63;;;6.40;82.90;;;;;;5054695;28;20057;-64
2022/12/01 04:37:36;;;;;;;1.33;0.63;;;6.30;83.10;;;;;;5054761;28;20150;-64
2022/12/01 04:40:02;;;;;;;0.70;0.50;;;6.30;83.40;;;;;;5054803;28;20126;-64
2022/12/01 04:42:27;;;;;;;1.17;0.53;;;6.30;84.90;;;;;;5054612;28;20040;-65
2022/12/01 04:44:53;;;;;;;0.60;0.40;;;6.20;84.10;;;;;;5055006;28;20025;-66
2022/12/01 04:47:19;;;;;;;1.80;0.80;;;6.20;83.70;;;;;;5053315;28;20036;-65
2022/12/01 04:49:44;;;;;;;0.60;0.57;;;6.20;84.80;;;;;;5053325;28;20106;-67
2022/12/01 04:52:10;;;;;;;0.77;0.50;;;6.10;84.80;;;;;;5054815;28;20079;-64
2022/12/01 04:54:36;;;;;;;1.10;0.80;;;6.10;83.80;;;;;;5054179;28;20467;-67
2022/12/01 04:57:01;;;;;;;1.53;0.70;;;6.10;84.40;;;;;;5053814;28;20040;-66
2022/12/01 04:59:27;;;;;;;1.10;0.50;;;6.10;85.50;;;;;;5054255;28;20498;-65
2022/12/01 05:01:53;;;;;;;1.00;0.50;;;6.10;86.00;;;;;;5054549;28;20154;-65
2022/12/01 05:04:18;;;;;;;1.40;0.60;;;6.10;85.70;;;;;;5054388;28;20029;-66
2022/12/01 05:06:44;;;;;;;0.70;0.47;;;6.10;85.40;;;;;;5054389;28;20116;-66
2022/12/01 05:09:13;;;;;;;0.40;0.30;;;6.10;84.70;;;;;;5052804;28;20418;-65
2022/12/01 05:11:39;;;;;;;0.73;0.40;;;6.10;84.60;;;;;;5054041;28;20063;-65
2022/12/01 05:14:05;;;;;;;2.20;0.40;;;6.10;84.20;;;;;;5053819;28;20056;-64
2022/12/01 05:16:32;;;;;;;0.50;0.33;;;6.10;85.70;;;;;;5053603;28;20123;-65
2022/12/01 05:21:55;;;;;;;0.87;0.50;;;6.10;85.80;;;;;;5034417;28;20030;-65
2022/12/01 05:24:21;;;;;;;1.43;0.50;;;6.10;86.00;;;;;;5054026;28;20025;-67
2022/12/01 05:26:47;;;;;;;1.37;0.60;;;6.10;85.70;;;;;;5053898;28;20036;-65
2022/12/01 05:29:13;;;;;;;2.07;1.13;;;6.10;86.20;;;;;;5053769;28;20025;-64
2022/12/01 05:31:38;;;;;;;1.30;0.70;;;6.10;85.10;;;;;;5053707;28;20028;-66
2022/12/01 05:34:05;;;;;;;1.20;0.70;;;6.00;85.80;;;;;;5053813;28;20398;-65
2022/12/01 05:36:31;;;;;;;2.87;0.60;;;6.00;85.90;;;;;;5053811;28;20053;-65
2022/12/01 05:38:57;;;;;;;4.03;0.80;;;6.00;85.70;;;;;;5053534;28;20027;-65
2022/12/01 05:41:23;;;;;;;2.50;0.90;;;6.00;85.70;;;;;;5053588;28;20104;-67
2022/12/01 05:43:48;;;;;;;4.37;1.10;;;5.90;85.90;;;;;;5053471;28;20467;-64
2022/12/01 05:46:14;;;;;;;3.03;1.37;;;6.00;85.70;;;;;;5053808;28;20027;-66
2022/12/01 05:48:40;;;;;;;3.67;1.17;;;5.90;86.10;;;;;;5053878;28;20021;-65
2022/12/01 05:51:11;;;;;;;1.57;1.00;;;5.90;86.60;;;;;;5052989;28;20063;-66
2022/12/01 05:53:36;;;;;;;5.27;0.90;;;5.90;86.20;;;;;;5053544;28;20028;-66
2022/12/01 05:56:03;;;;;;;1.97;0.80;;;5.90;86.80;;;;;;5053063;28;20522;-65
2022/12/01 05:58:28;;;;;;;6.60;0.97;;;5.80;86.60;;;;;;5053294;28;20021;-65
2022/12/01 06:00:54;;;;;;;8.00;5.20;;;5.80;86.30;;;;;;5051937;28;20115;-65
2022/12/01 06:03:20;;;;;;;14.83;8.00;;;5.80;86.30;;;;;;5053283;28;20032;-65
2022/12/01 06:05:45;;;;;;;10.83;4.30;;;5.80;86.30;;;;;;5052955;28;20033;-66
2022/12/01 06:08:11;;;;;;;4.17;2.47;;;5.90;86.50;;;;;;5053114;28;20017;-66
2022/12/01 06:10:36;;;;;;;4.53;2.63;;;5.90;86.20;;;;;;5053050;28;20033;-66
2022/12/01 06:13:02;;;;;;;8.67;2.47;;;5.90;86.40;;;;;;5052877;28;20017;-65
2022/12/01 06:15:28;;;;;;;2.33;1.77;;;5.80;86.40;;;;;;5052652;28;20035;-66
2022/12/01 06:17:54;;;;;;;2.90;1.63;;;5.80;86.20;;;;;;5052903;28;20025;-65
2022/12/01 06:20:19;;;;;;;2.17;1.30;;;5.80;86.90;;;;;;5053258;28;20021;-67
2022/12/01 06:22:45;;;;;;;3.40;1.40;;;5.80;87.00;;;;;;5053015;28;20025;-65
2022/12/01 06:25:10;;;;;;;1.93;1.40;;;5.70;87.10;;;;;;5053195;28;20427;-67
2022/12/01 06:27:36;;;;;;;2.60;1.63;;;5.70;86.70;;;;;;5052751;28;20111;-66
2022/12/01 06:30:04;;;;;;;2.10;1.47;;;5.70;86.50;;;;;;5052979;28;20039;-67
2022/12/01 06:32:29;;;;;;;3.57;1.80;;;5.60;86.50;;;;;;5052792;28;20025;-67
2022/12/01 06:34:55;;;;;;;2.63;1.63;;;5.60;86.80;;;;;;5052903;28;20033;-65
2022/12/01 06:37:21;;;;;;;2.60;1.80;;;5.60;86.60;;;;;;5052496;28;20085;-65
2022/12/01 06:39:46;;;;;;;3.00;1.63;;;5.60;86.50;;;;;;5052635;28;20025;-67
2022/12/01 06:42:12;;;;;;;3.57;1.67;;;5.50;87.00;;;;;;5052606;28;20060;-64
2022/12/01 06:44:38;;;;;;;3.30;2.00;;;5.50;87.40;;;;;;5052546;28;20082;-66
2022/12/01 06:47:04;;;;;;;4.03;2.27;;;5.50;86.80;;;;;;5052810;28;20021;-65
2022/12/01 06:49:29;;;;;;;4.10;2.10;;;5.50;87.70;;;;;;5052599;28;20025;-65
2022/12/01 06:51:55;;;;;;;3.70;2.17;;;5.40;87.90;;;;;;5052346;28;20028;-64
2022/12/01 06:54:21;;;;;;;2.90;2.00;;;5.40;88.40;;;;;;5052322;28;20086;-67
2022/12/01 06:56:46;;;;;;;2.77;2.00;;;5.50;88.90;;;;;;5052284;28;20082;-65
2022/12/01 06:59:12;;;;;;;9.97;2.53;;;5.50;89.30;;;;;;5052472;28;20104;-67
2022/12/01 07:01:38;;;;;;;3.50;1.90;;;5.50;88.70;;;;;;5052480;28;20029;-67
2022/12/01 07:04:04;;;;;;;3.17;2.13;;;5.50;88.70;;;;;;5052615;28;20486;-66
2022/12/01 07:06:30;;;;;;;4.10;1.70;;;5.50;89.20;;;;;;5052492;28;20100;-66
2022/12/01 07:08:56;;;;;;;4.70;1.93;;;5.50;89.10;;;;;;5054517;28;20096;-67
2022/12/01 07:11:22;;;;;;;5.73;1.90;;;5.50;88.60;;;;;;5056207;28;20167;-65
2022/12/01 07:13:53;;;;;;;2.77;2.37;;;5.50;89.20;;;;;;5056630;28;20025;-66
2022/12/01 07:16:18;;;;;;;11.20;3.40;;;5.60;88.80;;;;;;5056152;28;20043;-65
2022/12/01 07:18:44;;;;;;;5.97;2.63;;;5.60;88.60;;;;;;5056055;28;20024;-67
2022/12/01 07:21:12;;;;;;;8.63;2.40;;;5.60;88.60;;;;;;5056254;28;20141;-65
2022/12/01 07:23:38;;;;;;;8.00;2.87;;;5.70;89.20;;;;;;5054195;28;20032;-67
2022/12/01 07:26:09;;;;;;;5.93;3.33;;;5.70;88.80;;;;;;5055056;28;20075;-65
2022/12/01 07:28:35;;;;;;;7.60;3.17;;;5.70;88.80;;;;;;5055835;28;20025;-66
2022/12/01 07:31:12;;;;;;;8.30;2.73;;;5.80;88.70;;;;;;5055258;28;20513;-66
2022/12/01 07:33:38;;;;;;;10.20;2.90;;;5.90;88.90;;;;;;5054871;28;20056;-66
2022/12/01 07:36:05;;;;;;;6.43;2.67;;;5.90;88.90;;;;;;5055046;28;20092;-67
2022/12/01 07:38:32;;;;;;;4.07;2.50;;;6.00;89.20;;;;;;5055113;28;20465;-65
2022/12/01 07:41:05;;;;;;;9.90;2.50;;;6.00;89.20;;;;;;5055597;28;20095;-65
2022/12/01 07:43:32;;;;;;;15.77;2.70;;;6.10;88.90;;;;;;5055496;28;20104;-65
2022/12/01 07:46:12;;;;;;;7.77;2.57;;;6.20;88.50;;;;;;5055214;28;20105;-64
2022/12/01 07:48:39;;;;;;;8.77;3.00;;;6.30;87.90;;;;;;5055339;28;20028;-64
2022/12/01 07:51:06;;;;;;;4.43;3.13;;;6.30;87.70;;;;;;5055113;28;20096;-65
2022/12/01 07:53:32;;;;;;;8.10;3.30;;;6.40;87.30;;;;;;5055133;28;20027;-66
2022/12/01 07:55:58;;;;;;;34.27;4.10;;;6.50;87.20;;;;;;5055066;28;20025;-66
2022/12/01 07:58:24;;;;;;;22.13;3.73;;;6.60;87.00;;;;;;5055275;28;20029;-66
2022/12/01 08:00:49;;;;;;;12.30;2.80;;;6.60;86.50;;;;;;5055086;28;20032;-65
2022/12/01 08:03:15;;;;;;;10.43;3.20;;;6.60;86.20;;;;;;5054877;28;20051;-65
2022/12/01 08:05:41;;;;;;;10.07;2.80;;;6.70;85.80;;;;;;5054862;28;20024;-67
2022/12/01 08:08:06;;;;;;;6.23;2.67;;;6.80;85.30;;;;;;5054803;28;20029;-65
2022/12/01 08:10:32;;;;;;;5.20;2.67;;;6.90;85.10;;;;;;5054547;28;20510;-65
2022/12/01 08:12:58;;;;;;;7.30;3.10;;;6.90;84.80;;;;;;5054783;28;20112;-65
2022/12/01 08:15:23;;;;;;;4.47;3.20;;;7.00;84.90;;;;;;5053846;28;20048;-66
2022/12/01 08:17:49;;;;;;;5.60;3.10;;;7.00;84.50;;;;;;5054911;28;20372;-64
2022/12/01 08:20:15;;;;;;;4.17;2.43;;;7.10;84.70;;;;;;5054290;28;20485;-65
2022/12/01 08:22:41;;;;;;;30.80;12.50;;;7.20;85.00;;;;;;5053394;28;20025;-66
2022/12/01 08:25:07;;;;;;;16.23;6.73;;;7.20;84.80;;;;;;5054414;28;20032;-64
2022/12/01 08:27:33;;;;;;;9.17;4.00;;;7.30;84.70;;;;;;5054533;28;20517;-65
2022/12/01 08:29:59;;;;;;;7.60;4.00;;;7.30;83.70;;;;;;5054218;28;20142;-65
2022/12/01 08:32:24;;;;;;;9.63;2.90;;;7.40;83.40;;;;;;5054154;28;20092;-66
2022/12/01 08:34:50;;;;;;;4.90;1.70;;;7.50;83.90;;;;;;5054228;28;20020;-65
2022/12/01 08:37:16;;;;;;;2.00;1.10;;;7.50;83.30;;;;;;5054149;28;20052;-66
2022/12/01 08:39:41;;;;;;;1.87;0.90;;;7.60;82.40;;;;;;5054135;28;20021;-65
2022/12/01 08:42:07;;;;;;;1.90;0.80;;;7.70;82.30;;;;;;5054225;28;20029;-65
2022/12/01 08:44:33;;;;;;;0.97;0.40;;;7.70;82.10;;;;;;5053967;28;20422;-66
2022/12/01 08:46:58;;;;;;;0.53;0.30;;;7.80;81.70;;;;;;5020338;28;20049;-68
2022/12/01 08:49:25;;;;;;;0.37;0.27;;;7.90;81.10;;;;;;5033068;28;20029;-66
2022/12/01 08:51:51;;;;;;;1.10;0.50;;;7.90;80.80;;;;;;5030910;28;20108;-66
2022/12/01 08:54:16;;;;;;;0.73;0.40;;;8.00;80.80;;;;;;5033952;28;20101;-66
2022/12/01 08:56:44;;;;;;;1.47;0.50;;;8.00;80.10;;;;;;5033317;28;20029;-68
2022/12/01 08:59:10;;;;;;;0.53;0.37;;;8.10;79.10;;;;;;5032576;28;20036;-68
2022/12/01 09:01:50;;;;;;;1.63;0.50;;;8.10;78.70;;;;;;5033412;28;20104;-65
2022/12/01 09:04:17;;;;;;;0.30;0.30;;;8.10;78.90;;;;;;5033799;28;20024;-66
2022/12/01 09:06:45;;;;;;;1.03;0.40;;;8.20;77.60;;;;;;5033438;28;20021;-67
2022/12/01 09:09:13;;;;;;;0.90;0.30;;;8.20;77.90;;;;;;5032971;28;20021;-67
2022/12/01 09:11:42;;;;;;;0.50;0.33;;;8.20;77.40;;;;;;5032359;28;20064;-65
2022/12/01 09:14:08;;;;;;;1.67;0.33;;;8.30;77.10;;;;;;5033771;28;20117;-68
2022/12/01 09:16:33;;;;;;;0.33;0.20;;;8.30;77.20;;;;;;5033747;28;20112;-68
2022/12/01 09:18:59;;;;;;;0.70;0.40;;;8.40;76.70;;;;;;5034157;28;20021;-65
2022/12/01 09:21:31;;;;;;;0.30;0.30;;;8.40;76.80;;;;;;5033762;28;20540;-66
2022/12/01 09:23:57;;;;;;;3.33;0.40;;;8.50;77.00;;;;;;5033905;28;20029;-66
2022/12/01 09:26:23;;;;;;;0.50;0.30;;;8.50;76.30;;;;;;5033420;28;20029;-68
2022/12/01 09:28:53;;;;;;;1.70;0.40;;;8.60;76.00;;;;;;5033658;28;20383;-65
2022/12/01 09:31:19;;;;;;;2.00;0.50;;;8.60;75.60;;;;;;5033131;28;20025;-65
2022/12/01 09:33:45;;;;;;;0.87;0.37;;;8.70;75.00;;;;;;5034210;28;20128;-65
2022/12/01 09:36:11;;;;;;;2.17;0.40;;;8.70;74.80;;;;;;5033740;28;20057;-66
2022/12/01 09:38:38;;;;;;;2.57;0.40;;;8.70;74.50;;;;;;5033582;28;20034;-65
2022/12/01 09:41:23;;;;;;;0.90;0.40;;;8.80;74.70;;;;;;5033770;28;20038;-65
2022/12/01 09:44:19;;;;;;;0.93;0.43;;;8.80;74.20;;;;;;5033761;28;20045;-65
2022/12/01 09:46:45;;;;;;;1.13;0.40;;;8.90;74.10;;;;;;5033878;28;20021;-65
2022/12/01 09:49:53;;;;;;;2.47;0.40;;;8.90;73.60;;;;;;5033612;28;20498;-65
2022/12/01 09:52:20;;;;;;;5.97;0.50;;;8.90;74.10;;;;;;5033703;28;20017;-65
2022/12/01 09:54:46;;;;;;;1.13;0.50;;;8.90;74.00;;;;;;5033190;28;20041;-65
2022/12/01 09:57:27;;;;;;;1.30;0.50;;;9.00;74.30;;;;;;5032979;28;20045;-68
2022/12/01 09:59:54;;;;;;;2.37;0.40;;;9.00;74.40;;;;;;5033610;28;20361;-68
2022/12/01 10:02:40;;;;;;;3.33;0.40;;;9.00;73.80;;;;;;5033265;28;20060;-65
2022/12/01 10:05:15;;;;;;;2.63;0.40;;;9.10;73.00;;;;;;5033574;28;20029;-65
2022/12/01 10:08:10;;;;;;;0.70;0.40;;;9.10;72.60;;;;;;5032924;28;20108;-68
2022/12/01 10:10:41;;;;;;;0.60;0.30;;;9.10;73.20;;;;;;5031302;28;20380;-64
2022/12/01 10:13:39;;;;;;;1.67;0.23;;;9.10;72.90;;;;;;5032536;28;20488;-65
2022/12/01 10:16:23;;;;;;;2.73;0.37;;;9.10;71.90;;;;;;5031657;28;20434;-67
2022/12/01 10:19:01;;;;;;;2.93;0.30;;;9.10;72.40;;;;;;5032666;28;20160;-65
2022/12/01 10:21:39;;;;;;;0.47;0.37;;;9.20;72.40;;;;;;5032696;28;20030;-66
2022/12/01 10:24:08;;;;;;;2.30;0.40;;;9.20;72.10;;;;;;5032859;28;20029;-64
2022/12/01 10:26:55;;;;;;;0.67;0.40;;;9.30;71.00;;;;;;5033347;28;20026;-65
2022/12/01 10:29:45;;;;;;;1.03;0.40;;;9.30;71.20;;;;;;5031670;28;20030;-65
2022/12/01 10:32:11;;;;;;;1.03;0.50;;;9.20;72.10;;;;;;5033005;28;20068;-65
2022/12/01 10:34:40;;;;;;;0.97;0.50;;;9.30;72.40;;;;;;5033034;28;20476;-65
2022/12/01 10:37:19;;;;;;;3.37;0.60;;;9.40;72.60;;;;;;5032803;28;20060;-65
2022/12/01 10:39:47;;;;;;;1.80;0.73;;;9.40;72.40;;;;;;5031361;28;20563;-65
2022/12/01 10:42:22;;;;;;;0.83;0.57;;;9.40;72.80;;;;;;5033734;28;20030;-65
2022/12/01 10:44:49;;;;;;;0.70;0.50;;;9.40;73.00;;;;;;5036655;28;20029;-65
2022/12/01 10:47:23;;;;;;;0.50;0.40;;;9.40;72.30;;;;;;5036921;28;20065;-65
2022/12/01 10:49:49;;;;;;;1.10;0.70;;;9.40;71.70;;;;;;5036662;28;20485;-66
2022/12/01 10:52:30;;;;;;;1.47;0.50;;;9.40;71.60;;;;;;5036214;28;20108;-65
2022/12/01 10:54:55;;;;;;;1.70;0.60;;;9.40;71.80;;;;;;5036520;28;20113;-65
2022/12/01 10:57:22;;;;;;;3.43;0.77;;;9.40;71.70;;;;;;5036685;28;20481;-65
2022/12/01 10:59:58;;;;;;;1.30;0.60;;;9.40;71.50;;;;;;5036498;28;20061;-65
2022/12/01 11:02:26;;;;;;;1.27;0.50;;;9.30;71.70;;;;;;5036546;28;20043;-65
2022/12/01 11:04:58;;;;;;;1.53;0.40;;;9.30;72.00;;;;;;5036252;28;20037;-64
2022/12/01 11:07:31;;;;;;;0.65;0.50;;;9.30;71.70;;;;;;5036143;28;20037;-65
2022/12/01 11:10:13;;;;;;;1.10;0.40;;;9.20;72.30;;;;;;5036784;28;20491;-64
2022/12/01 11:12:40;;;;;;;1.30;0.47;;;9.20;71.90;;;;;;5036316;28;20028;-65
2022/12/01 11:15:07;;;;;;;1.20;0.43;;;9.20;71.90;;;;;;5036107;28;20155;-66
2022/12/01 11:17:39;;;;;;;2.80;0.40;;;9.20;72.00;;;;;;5036196;28;20069;-65
2022/12/01 11:20:33;;;;;;;3.60;0.60;;;9.20;72.20;;;;;;5035936;28;20483;-66
2022/12/01 11:23:19;;;;;;;10.07;0.87;;;9.20;71.20;;;;;;5036108;28;20068;-65
2022/12/01 11:26:16;;;;;;;0.97;0.37;;;9.10;71.60;;;;;;5035258;28;20034;-66
2022/12/01 11:29:04;;;;;;;1.30;0.53;;;9.10;71.80;;;;;;5030572;28;20034;-65
2022/12/01 11:31:47;;;;;;;0.97;0.57;;;9.00;72.60;;;;;;5031580;28;20159;-65
2022/12/01 11:34:23;;;;;;;1.45;0.77;;;9.10;72.70;;;;;;5031190;28;20032;-66
2022/12/01 11:37:01;;;;;;;3.87;0.70;;;9.00;72.20;;;;;;5031336;28;20045;-65
2022/12/01 11:39:33;;;;;;;4.40;1.53;;;9.00;72.70;;;;;;5032699;28;20049;-66
2022/12/01 11:42:26;;;;;;;1.15;0.77;;;9.10;72.80;;;;;;5035319;28;20033;-65
2022/12/01 11:45:12;;;;;;;;;;;9.10;72.20;;;;;;5033767;28;20033;-66
2022/12/01 11:47:57;;;;;;;4.50;0.83;;;9.10;72.70;;;;;;5026485;28;19905;-66
2022/12/01 11:50:26;;;;;;;2.60;0.70;;;9.10;72.80;;;;;;5034437;28;20380;-65
2022/12/01 11:52:52;;;;;;;3.43;0.60;;;9.10;72.70;;;;;;5034758;28;20383;-65
2022/12/01 11:55:23;;;;;;;5.37;0.60;;;9.10;73.20;;;;;;5032933;28;20032;-65
2022/12/01 11:57:52;;;;;;;4.90;0.97;;;9.20;73.20;;;;;;5032754;28;20498;-66
2022/12/01 12:00:22;;;;;;;2.00;1.20;;;9.30;73.40;;;;;;5034977;28;20022;-70
2022/12/01 12:02:54;;;;;;;2.60;1.30;;;9.30;72.60;;;;;;5015031;28;20030;-66
2022/12/01 12:05:33;;;;;;;4.03;1.20;;;9.40;72.00;;;;;;5015780;28;20032;-65
2022/12/01 12:07:59;;;;;;;3.90;0.90;;;9.40;72.70;;;;;;5015769;28;20609;-65
2022/12/01 12:11:03;;;;;;;2.47;1.23;;;9.40;72.60;;;;;;5014788;28;20038;-66
2022/12/01 12:13:39;;;;;;;2.10;1.00;;;9.50;73.30;;;;;;5015688;28;20029;-65
2022/12/01 12:16:49;;;;;;;1.37;1.00;;;9.50;73.20;;;;;;5015603;28;20041;-66
2022/12/01 12:19:18;;;;;;;1.90;0.90;;;9.60;72.80;;;;;;4974010;28;20037;-65
2022/12/01 12:21:52;;;;;;;1.20;0.80;;;9.60;72.50;;;;;;4974237;28;20026;-65
2022/12/01 12:24:30;;;;;;;1.40;0.70;;;9.70;72.20;;;;;;4996357;28;20038;-69
2022/12/01 12:27:38;;;;;;;1.20;0.87;;;9.70;71.90;;;;;;5015158;28;20036;-65
2022/12/01 12:30:28;;;;;;;1.90;0.93;;;9.70;71.40;;;;;;5014966;28;20034;-66
2022/12/01 12:33:03;;;;;;;2.47;0.90;;;9.70;71.20;;;;;;5015235;28;20030;-66
2022/12/01 12:35:57;;;;;;;1.90;1.00;;;9.70;70.70;;;;;;5014972;28;20057;-66
2022/12/01 12:38:47;;;;;;;1.83;1.00;;;9.70;70.90;;;;;;5010904;28;20045;-67
2022/12/01 12:41:31;;;;;;;1.90;0.83;;;9.70;70.80;;;;;;5015019;28;20099;-66
2022/12/01 12:44:00;;;;;;;1.33;0.93;;;9.80;71.00;;;;;;5015193;28;20030;-66
2022/12/01 12:46:44;;;;;;;4.90;1.00;;;9.90;71.20;;;;;;5014463;28;20041;-66
2022/12/01 12:49:24;;;;;;;0.83;0.60;;;9.90;71.10;;;;;;5014580;28;20433;-66
2022/12/01 12:52:14;;;;;;;1.03;0.70;;;10.00;70.10;;;;;;5014878;28;20483;-66
2022/12/01 12:55:01;;;;;;;2.67;0.57;;;10.00;69.20;;;;;;5014942;28;20503;-66
2022/12/01 12:57:26;;;;;;;3.73;0.67;;;10.00;68.90;;;;;;5014504;28;20038;-70
2022/12/01 12:59:55;;;;;;;1.33;0.70;;;10.00;69.50;;;;;;5013626;28;20030;-67
2022/12/01 13:02:34;;;;;;;1.07;0.60;;;10.00;69.60;;;;;;5014458;28;20034;-66
2022/12/01 13:05:17;;;;;;;1.00;0.60;;;10.00;69.20;;;;;;5014200;28;20069;-67
2022/12/01 13:07:46;;;;;;;;;;;10.00;69.60;;;;;;5014446;28;20022;-65
2022/12/01 13:10:27;;;;;;;2.67;0.70;;;10.10;69.40;;;;;;5014564;28;19951;-66
2022/12/01 13:13:11;;;;;;;4.00;0.70;;;10.10;69.90;;;;;;5014378;28;20104;-71
2022/12/01 13:15:39;;;;;;;2.20;1.10;;;10.10;68.70;;;;;;5014295;28;20113;-66
2022/12/01 13:18:37;;;;;;;1.00;0.70;;;10.10;69.00;;;;;;5014379;28;20025;-66
2022/12/01 13:21:04;;;;;;;2.07;1.10;;;10.10;68.30;;;;;;5014361;28;20030;-67
2022/12/01 13:23:31;;;;;;;3.07;0.83;;;10.10;68.70;;;;;;5013990;28;20032;-71